Time;durP1;ratioP1;P1;durP2;ratioP2;P2;SDS_P1;SDS_P2;PMS_P1;PMS_P2;Temp;Humidity;BMP_temperature;BMP_pressure;BME280_temperature;BME280_humidity;BME280_pressure;Samples;Min_cycle;Max_cycle;Signal;HPM_P1;HPM_P2
2021/09/15 00:01:42;;;;;;;;;;;;;;;;;;5112489;28;19931;-73
2021/09/15 00:04:08;;;;;;;;;;;;;;;;;;5112849;28;19933;-72
2021/09/15 00:06:34;;;;;;;;;;;;;;;;;;5112537;28;19946;-72
2021/09/15 00:09:01;;;;;;;;;;;;;;;;;;5112547;28;19923;-72
2021/09/15 00:11:27;;;;;;;;;;;;;;;;;;5112121;28;19976;-72
2021/09/15 00:13:54;;;;;;;;;;;;;;;;;;5112763;28;19961;-72
2021/09/15 00:16:20;;;;;;;;;;;;;;;;;;5112158;28;20378;-72
2021/09/15 00:18:46;;;;;;;;;;;;;;;;;;5112720;28;19931;-72
2021/09/15 00:21:13;;;;;;;;;;;;;;;;;;5112374;28;19950;-72
2021/09/15 00:23:39;;;;;;;;;;;;;;;;;;5112155;28;19930;-72
2021/09/15 00:26:05;;;;;;;;;;;;;;;;;;5112551;28;19931;-72
2021/09/15 00:28:31;;;;;;;;;;;;;;;;;;5112070;28;20389;-72
2021/09/15 00:30:58;;;;;;;;;;;;;;;;;;5114107;28;19931;-72
2021/09/15 00:33:24;;;;;;;;;;;;;;;;;;5116124;28;19946;-72
2021/09/15 00:35:50;;;;;;;;;;;;;;;;;;5116060;28;19931;-72
2021/09/15 00:38:17;;;;;;;;;;;;;;;;;;5115940;28;19956;-72
2021/09/15 00:40:43;;;;;;;;;;;;;;;;;;5111672;28;20518;-72
2021/09/15 00:43:09;;;;;;;;;;;;;;;;;;5095439;28;19936;-72
2021/09/15 00:45:36;;;;;;;;;;;;;;;;;;5095488;28;19947;-72
2021/09/15 00:48:02;;;;;;;;;;;;;;;;;;5095476;28;19970;-72
2021/09/15 00:50:28;;;;;;;;;;;;;;;;;;5095038;28;19924;-73
2021/09/15 00:52:54;;;;;;;;;;;;;;;;;;5095474;28;19924;-72
2021/09/15 00:55:21;;;;;;;;;;;;;;;;;;5094918;28;20366;-72
2021/09/15 00:57:47;;;;;;;;;;;;;;;;;;5095462;28;19931;-72
2021/09/15 01:00:13;;;;;;;;;;;;;;;;;;5094849;28;20291;-72
2021/09/15 01:02:40;;;;;;;;;;;;;;;;;;5094979;28;19924;-71
2021/09/15 01:05:06;;;;;;;;;;;;;;;;;;5095524;28;19924;-72
2021/09/15 01:07:32;;;;;;;;;;;;;;;;;;5094655;28;19928;-72
2021/09/15 01:09:58;;;;;;;;;;;;;;;;;;5095242;28;19924;-72
2021/09/15 01:12:25;;;;;;;;;;;;;;;;;;5094673;28;20374;-72
2021/09/15 01:14:51;;;;;;;;;;;;;;;;;;5094768;28;19924;-72
2021/09/15 01:17:18;;;;;;;;;;;;;;;;;;5094487;28;19931;-72
2021/09/15 01:19:44;;;;;;;;;;;;;;;;;;5095044;28;19924;-73
2021/09/15 01:22:10;;;;;;;;;;;;;;;;;;5094642;28;20272;-72
2021/09/15 01:24:37;;;;;;;;;;;;;;;;;;5094436;28;19925;-72
2021/09/15 01:27:03;;;;;;;;;;;;;;;;;;5094365;28;19931;-72
2021/09/15 01:29:29;;;;;;;;;;;;;;;;;;5094609;28;19939;-72
2021/09/15 01:31:56;;;;;;;;;;;;;;;;;;5094420;28;19924;-72
2021/09/15 01:34:22;;;;;;;;;;;;;;;;;;5094541;28;19931;-72
2021/09/15 01:36:48;;;;;;;;;;;;;;;;;;5094322;28;20399;-72
2021/09/15 01:39:14;;;;;;;;;;;;;;;;;;5094353;28;19924;-72
2021/09/15 01:41:41;;;;;;;;;;;;;;;;;;5106724;28;19924;-72
2021/09/15 01:44:07;;;;;;;;;;;;;;;;;;5114639;28;19924;-72
2021/09/15 01:46:33;;;;;;;;;;;;;;;;;;5114601;28;19927;-71
2021/09/15 01:49:00;;;;;;;;;;;;;;;;;;5114487;28;19923;-71
2021/09/15 01:51:26;;;;;;;;;;;;;;;;;;5114453;28;19924;-71
2021/09/15 01:53:52;;;;;;;;;;;;;;;;;;5114737;28;19946;-71
2021/09/15 01:56:19;;;;;;;;;;;;;;;;;;5114191;28;19930;-71
2021/09/15 01:58:45;;;;;;;;;;;;;;;;;;5114692;28;19924;-71
2021/09/15 02:01:11;;;;;;;;;;;;;;;;;;5114517;28;20322;-71
2021/09/15 02:03:37;;;;;;;;;;;;;;;;;;5114128;28;19931;-71
2021/09/15 02:06:04;;;;;;;;;;;;;;;;;;5114512;28;19935;-72
2021/09/15 02:08:30;;;;;;;;;;;;;;;;;;5113821;28;20370;-72
2021/09/15 02:10:56;;;;;;;;;;;;;;;;;;5114333;28;19931;-72
2021/09/15 02:13:23;;;;;;;;;;;;;;;;;;5114121;28;19924;-72
2021/09/15 02:15:49;;;;;;;;;;;;;;;;;;5113931;28;19924;-72
2021/09/15 02:18:15;;;;;;;;;;;;;;;;;;5114000;28;19924;-72
2021/09/15 02:20:41;;;;;;;;;;;;;;;;;;5113855;28;19931;-72
2021/09/15 02:23:08;;;;;;;;;;;;;;;;;;5113909;28;19924;-72
2021/09/15 02:25:34;;;;;;;;;;;;;;;;;;5113438;28;20282;-72
2021/09/15 02:28:00;;;;;;;;;;;;;;;;;;5113742;28;19931;-72
2021/09/15 02:30:27;;;;;;;;;;;;;;;;;;5113823;28;19947;-72
2021/09/15 02:32:53;;;;;;;;;;;;;;;;;;5113628;28;19930;-72
2021/09/15 02:35:19;;;;;;;;;;;;;;;;;;5113774;28;19931;-72
2021/09/15 02:37:45;;;;;;;;;;;;;;;;;;5113887;28;19946;-72
2021/09/15 02:40:12;;;;;;;;;;;;;;;;;;5113599;28;19931;-72
2021/09/15 02:42:38;;;;;;;;;;;;;;;;;;5093453;28;19924;-72
2021/09/15 02:45:04;;;;;;;;;;;;;;;;;;5093184;28;20386;-72
2021/09/15 02:47:31;;;;;;;;;;;;;;;;;;5092803;28;19924;-72
2021/09/15 02:49:57;;;;;;;;;;;;;;;;;;5093175;28;19925;-72
2021/09/15 02:52:23;;;;;;;;;;;;;;;;;;5092782;28;19924;-72
2021/09/15 02:54:50;;;;;;;;;;;;;;;;;;5092884;28;19931;-72
2021/09/15 02:57:16;;;;;;;;;;;;;;;;;;5092975;28;19947;-72
2021/09/15 02:59:42;;;;;;;;;;;;;;;;;;5092894;28;19924;-72
2021/09/15 03:02:08;;;;;;;;;;;;;;;;;;5092957;28;19927;-73
2021/09/15 03:04:35;;;;;;;;;;;;;;;;;;5092560;28;19935;-72
2021/09/15 03:07:01;;;;;;;;;;;;;;;;;;5092738;28;19924;-73
2021/09/15 03:09:27;;;;;;;;;;;;;;;;;;5092811;28;19924;-72
2021/09/15 03:11:54;;;;;;;;;;;;;;;;;;5092661;28;20378;-72
2021/09/15 03:14:20;;;;;;;;;;;;;;;;;;5092357;28;19924;-72
2021/09/15 03:16:46;;;;;;;;;;;;;;;;;;5092904;28;19947;-72
2021/09/15 03:19:12;;;;;;;;;;;;;;;;;;5092383;28;19931;-72
2021/09/15 03:21:41;;;;;;;;;;;;;;;;;;5092894;28;19966;-72
2021/09/15 03:24:07;;;;;;;;;;;;;;;;;;5092369;28;20008;-72
2021/09/15 03:26:34;;;;;;;;;;;;;;;;;;5092070;28;19924;-72
2021/09/15 03:29:00;;;;;;;;;;;;;;;;;;5092826;28;19932;-73
2021/09/15 03:31:26;;;;;;;;;;;;;;;;;;5092166;28;19924;-72
2021/09/15 03:33:52;;;;;;;;;;;;;;;;;;5092772;28;19931;-72
2021/09/15 03:36:19;;;;;;;;;;;;;;;;;;5092227;28;20290;-72
2021/09/15 03:38:45;;;;;;;;;;;;;;;;;;5092496;28;19928;-74
2021/09/15 03:41:12;;;;;;;;;;;;;;;;;;5100530;28;19946;-73
2021/09/15 03:43:38;;;;;;;;;;;;;;;;;;5113520;28;19973;-79
2021/09/15 03:46:04;;;;;;;;;;;;;;;;;;5113049;28;19930;-75
2021/09/15 03:48:31;;;;;;;;;;;;;;;;;;5112292;28;20305;-73
2021/09/15 03:50:57;;;;;;;;;;;;;;;;;;5112719;28;20342;-73
2021/09/15 03:53:23;;;;;;;;;;;;;;;;;;5112274;28;19930;-74
2021/09/15 03:55:50;;;;;;;;;;;;;;;;;;5112895;28;19946;-73
2021/09/15 03:58:16;;;;;;;;;;;;;;;;;;5112559;28;19935;-77
2021/09/15 04:00:42;;;;;;;;;;;;;;;;;;5112860;28;19924;-77
2021/09/15 04:03:09;;;;;;;;;;;;;;;;;;5112933;28;19947;-75
2021/09/15 04:05:35;;;;;;;;;;;;;;;;;;5113114;28;19931;-73
2021/09/15 04:08:01;;;;;;;;;;;;;;;;;;5116629;28;19938;-72
2021/09/15 04:10:27;;;;;;;;;;;;;;;;;;5116180;28;20269;-72
2021/09/15 04:12:54;;;;;;;;;;;;;;;;;;5116467;28;19924;-72
2021/09/15 04:15:20;;;;;;;;;;;;;;;;;;5116442;28;19946;-72
2021/09/15 04:17:46;;;;;;;;;;;;;;;;;;5116259;28;19927;-72
2021/09/15 04:20:13;;;;;;;;;;;;;;;;;;5116320;28;19931;-72
2021/09/15 04:22:40;;;;;;;;;;;;;;;;;;5115957;28;19924;-72
2021/09/15 04:33:14;;;;;;;;;;;;;;;;;;5115903;28;20004;-72
2021/09/15 04:35:41;;;;;;;;;;;;;;;;;;5116200;28;19923;-72
2021/09/15 04:38:07;;;;;;;;;;;;;;;;;;5115936;28;19924;-72
2021/09/15 04:40:33;;;;;;;;;;;;;;;;;;5113217;28;19924;-72
2021/09/15 04:42:59;;;;;;;;;;;;;;;;;;5095589;28;19924;-72
2021/09/15 04:45:26;;;;;;;;;;;;;;;;;;5095160;28;20072;-72
2021/09/15 04:47:52;;;;;;;;;;;;;;;;;;5095373;28;19931;-72
2021/09/15 04:50:18;;;;;;;;;;;;;;;;;;5095016;28;20370;-72
2021/09/15 04:52:45;;;;;;;;;;;;;;;;;;5095258;28;19925;-72
2021/09/15 04:55:11;;;;;;;;;;;;;;;;;;5095371;28;19924;-72
2021/09/15 04:57:37;;;;;;;;;;;;;;;;;;5095420;28;20348;-73
2021/09/15 05:00:04;;;;;;;;;;;;;;;;;;5095132;28;19924;-73
2021/09/15 05:02:30;;;;;;;;;;;;;;;;;;5095021;28;19924;-71
2021/09/15 05:04:56;;;;;;;;;;;;;;;;;;5095028;28;20386;-71
2021/09/15 05:07:22;;;;;;;;;;;;;;;;;;5094867;28;19928;-71
2021/09/15 05:09:49;;;;;;;;;;;;;;;;;;5095177;28;19924;-71
2021/09/15 05:12:15;;;;;;;;;;;;;;;;;;5094662;28;19965;-71
2021/09/15 05:14:41;;;;;;;;;;;;;;;;;;5095011;28;19924;-71
2021/09/15 05:17:08;;;;;;;;;;;;;;;;;;5094416;28;20401;-71
2021/09/15 05:19:34;;;;;;;;;;;;;;;;;;5094567;28;19924;-71
2021/09/15 05:22:00;;;;;;;;;;;;;;;;;;5095031;28;19924;-70
2021/09/15 05:24:26;;;;;;;;;;;;;;;;;;5094187;28;20388;-72
2021/09/15 05:26:53;;;;;;;;;;;;;;;;;;5095169;28;20019;-72
2021/09/15 05:29:19;;;;;;;;;;;;;;;;;;5094195;28;19951;-72
2021/09/15 05:31:45;;;;;;;;;;;;;;;;;;5094531;28;19931;-72
2021/09/15 05:34:12;;;;;;;;;;;;;;;;;;5094526;28;19938;-72
2021/09/15 05:36:38;;;;;;;;;;;;;;;;;;5094706;28;19946;-72
2021/09/15 05:39:04;;;;;;;;;;;;;;;;;;5094384;28;19931;-72
2021/09/15 05:41:31;;;;;;;;;;;;;;;;;;5104899;28;19931;-72
2021/09/15 05:43:57;;;;;;;;;;;;;;;;;;5114512;28;20316;-72
2021/09/15 05:46:23;;;;;;;;;;;;;;;;;;5114379;28;19923;-72
2021/09/15 05:48:49;;;;;;;;;;;;;;;;;;5114793;28;19924;-72
2021/09/15 05:51:16;;;;;;;;;;;;;;;;;;5114543;28;19946;-72
2021/09/15 05:53:42;;;;;;;;;;;;;;;;;;5114314;28;19924;-72
2021/09/15 05:56:09;;;;;;;;;;;;;;;;;;5114614;28;19930;-72
2021/09/15 05:58:35;;;;;;;;;;;;;;;;;;5114122;28;20030;-72
2021/09/15 06:01:01;;;;;;;;;;;;;;;;;;5114298;28;19930;-73
2021/09/15 06:03:28;;;;;;;;;;;;;;;;;;5114342;28;19923;-73
2021/09/15 06:05:54;;;;;;;;;;;;;;;;;;5114351;28;19946;-70
2021/09/15 06:08:20;;;;;;;;;;;;;;;;;;5113897;28;19924;-70
2021/09/15 06:10:46;;;;;;;;;;;;;;;;;;5114445;28;19924;-73
2021/09/15 06:13:13;;;;;;;;;;;;;;;;;;5114205;28;20270;-73
2021/09/15 06:15:39;;;;;;;;;;;;;;;;;;5113988;28;19924;-73
2021/09/15 06:18:06;;;;;;;;;;;;;;;;;;5113881;28;19962;-71
2021/09/15 06:20:32;;;;;;;;;;;;;;;;;;5113874;28;19935;-73
2021/09/15 06:22:58;;;;;;;;;;;;;;;;;;5113713;28;19923;-71
2021/09/15 06:25:26;;;;;;;;;;;;;;;;;;5113917;28;19924;-71
2021/09/15 06:27:54;;;;;;;;;;;;;;;;;;5113467;28;19924;-71
2021/09/15 06:30:20;;;;;;;;;;;;;;;;;;5113693;28;19930;-71
2021/09/15 06:32:47;;;;;;;;;;;;;;;;;;5113975;28;19935;-71
2021/09/15 06:35:13;;;;;;;;;;;;;;;;;;5113438;28;20397;-71
2021/09/15 06:37:39;;;;;;;;;;;;;;;;;;5113414;28;19924;-71
2021/09/15 06:40:06;;;;;;;;;;;;;;;;;;5113868;28;19931;-72
2021/09/15 06:42:32;;;;;;;;;;;;;;;;;;5093896;28;20002;-71
2021/09/15 06:44:58;;;;;;;;;;;;;;;;;;5093389;28;19924;-71
2021/09/15 06:47:25;;;;;;;;;;;;;;;;;;5092799;28;20401;-71
2021/09/15 06:49:52;;;;;;;;;;;;;;;;;;5093034;28;20019;-72
2021/09/15 06:52:18;;;;;;;;;;;;;;;;;;5093093;28;20015;-72
2021/09/15 06:54:47;;;;;;;;;;;;;;;;;;5092897;28;20279;-72
2021/09/15 06:57:13;;;;;;;;;;;;;;;;;;5092960;28;19931;-72
2021/09/15 06:59:39;;;;;;;;;;;;;;;;;;5092741;28;20283;-72
2021/09/15 07:02:06;;;;;;;;;;;;;;;;;;5092829;28;19931;-72
2021/09/15 07:04:32;;;;;;;;;;;;;;;;;;5092846;28;19928;-73
2021/09/15 07:06:59;;;;;;;;;;;;;;;;;;5092788;28;20374;-72
2021/09/15 07:09:25;;;;;;;;;;;;;;;;;;5092373;28;19924;-73
2021/09/15 07:11:51;;;;;;;;;;;;;;;;;;5092935;28;19924;-72
2021/09/15 07:14:17;;;;;;;;;;;;;;;;;;5092384;28;20390;-72
2021/09/15 07:16:44;;;;;;;;;;;;;;;;;;5092746;28;19924;-72
2021/09/15 07:19:10;;;;;;;;;;;;;;;;;;5092756;28;19924;-73
2021/09/15 07:21:36;;;;;;;;;;;;;;;;;;5092395;28;19924;-72
2021/09/15 07:24:03;;;;;;;;;;;;;;;;;;5092457;28;19924;-72
2021/09/15 07:26:29;;;;;;;;;;;;;;;;;;5092221;28;20382;-72
2021/09/15 07:28:55;;;;;;;;;;;;;;;;;;5092706;28;19928;-72
2021/09/15 07:31:22;;;;;;;;;;;;;;;;;;5092118;28;19939;-72
2021/09/15 07:33:48;;;;;;;;;;;;;;;;;;5092604;28;19935;-72
2021/09/15 07:36:14;;;;;;;;;;;;;;;;;;5092191;28;20268;-71
2021/09/15 07:38:41;;;;;;;;;;;;;;;;;;5092287;28;19925;-72
2021/09/15 07:41:07;;;;;;;;;;;;;;;;;;5103576;28;19924;-72
2021/09/15 07:43:33;;;;;;;;;;;;;;;;;;5116726;28;20282;-72
2021/09/15 07:45:59;;;;;;;;;;;;;;;;;;5116736;28;19924;-72
2021/09/15 07:48:26;;;;;;;;;;;;;;;;;;5116892;28;19931;-72
2021/09/15 07:50:52;;;;;;;;;;;;;;;;;;5116836;28;19924;-72
2021/09/15 07:53:18;;;;;;;;;;;;;;;;;;5116790;28;19928;-72
2021/09/15 07:55:45;;;;;;;;;;;;;;;;;;5116892;28;19946;-72
2021/09/15 07:58:11;;;;;;;;;;;;;;;;;;5116497;28;20285;-72
2021/09/15 08:00:37;;;;;;;;;;;;;;;;;;5116696;28;19924;-72
2021/09/15 08:03:03;;;;;;;;;;;;;;;;;;5116910;28;19924;-72
2021/09/15 08:05:30;;;;;;;;;;;;;;;;;;5116209;28;19924;-72
2021/09/15 08:07:57;;;;;;;;;;;;;;;;;;5116704;28;19924;-72
2021/09/15 08:10:23;;;;;;;;;;;;;;;;;;5116532;28;19951;-72
2021/09/15 08:12:49;;;;;;;;;;;;;;;;;;5116407;28;19923;-72
2021/09/15 08:15:16;;;;;;;;;;;;;;;;;;5116455;28;19924;-72
2021/09/15 08:17:42;;;;;;;;;;;;;;;;;;5116325;28;20262;-72
2021/09/15 08:20:09;;;;;;;;;;;;;;;;;;5116325;28;20071;-72
2021/09/15 08:22:35;;;;;;;;;;;;;;;;;;5115816;28;19924;-73
2021/09/15 08:25:01;;;;;;;;;;;;;;;;;;5116500;28;19931;-72
2021/09/15 08:27:28;;;;;;;;;;;;;;;;;;5115887;28;19924;-72
2021/09/15 08:29:54;;;;;;;;;;;;;;;;;;5116105;28;19924;-73
2021/09/15 08:32:20;;;;;;;;;;;;;;;;;;5116322;28;20259;-72
2021/09/15 08:34:47;;;;;;;;;;;;;;;;;;5116327;28;19927;-72
2021/09/15 08:37:13;;;;;;;;;;;;;;;;;;5115975;28;19930;-71
2021/09/15 08:39:39;;;;;;;;;;;;;;;;;;5115930;28;20026;-72
2021/09/15 08:42:06;;;;;;;;;;;;;;;;;;5100436;28;19931;-73
2021/09/15 08:44:32;;;;;;;;;;;;;;;;;;5095349;28;19928;-72
2021/09/15 08:46:58;;;;;;;;;;;;;;;;;;5095365;28;19932;-72
2021/09/15 08:49:25;;;;;;;;;;;;;;;;;;5095308;28;19931;-72
2021/09/15 08:51:51;;;;;;;;;;;;;;;;;;5094512;28;20267;-73
2021/09/15 08:54:17;;;;;;;;;;;;;;;;;;5094857;28;19924;-72
2021/09/15 08:56:43;;;;;;;;;;;;;;;;;;5095525;28;19924;-72
2021/09/15 08:59:10;;;;;;;;;;;;;;;;;;5095163;28;19931;-73
2021/09/15 09:01:36;;;;;;;;;;;;;;;;;;5094976;28;19931;-73
2021/09/15 09:04:03;;;;;;;;;;;;;;;;;;5095386;28;19924;-72
2021/09/15 09:06:29;;;;;;;;;;;;;;;;;;5095110;28;20026;-73
2021/09/15 09:08:57;;;;;;;;;;;;;;;;;;5095068;28;19924;-73
2021/09/15 09:11:23;;;;;;;;;;;;;;;;;;5094994;28;19990;-73
2021/09/15 09:13:49;;;;;;;;;;;;;;;;;;5094920;28;19928;-72
2021/09/15 09:16:17;;;;;;;;;;;;;;;;;;5094450;28;19930;-73
2021/09/15 09:18:44;;;;;;;;;;;;;;;;;;5094855;28;19931;-73
2021/09/15 09:21:10;;;;;;;;;;;;;;;;;;5094960;28;19924;-73
2021/09/15 09:23:36;;;;;;;;;;;;;;;;;;5094211;28;20429;-73
2021/09/15 09:26:03;;;;;;;;;;;;;;;;;;5094559;28;19925;-73
2021/09/15 09:28:29;;;;;;;;;;;;;;;;;;5094562;28;19934;-71
2021/09/15 09:30:55;;;;;;;;;;;;;;;;;;5094443;28;20031;-71
2021/09/15 09:33:22;;;;;;;;;;;;;;;;;;5094565;28;19931;-73
2021/09/15 09:35:48;;;;;;;;;;;;;;;;;;5094356;28;20291;-73
2021/09/15 09:38:14;;;;;;;;;;;;;;;;;;5094156;28;19924;-73
2021/09/15 09:40:41;;;;;;;;;;;;;;;;;;5098113;28;19928;-73
2021/09/15 09:43:07;;;;;;;;;;;;;;;;;;5114670;28;19924;-73
2021/09/15 09:45:36;;;;;;;;;;;;;;;;;;5114614;28;19924;-73
2021/09/15 09:48:03;;;;;;;;;;;;;;;;;;5114926;28;19937;-73
2021/09/15 09:50:29;;;;;;;;;;;;;;;;;;5114502;28;19928;-73
2021/09/15 09:52:55;;;;;;;;;;;;;;;;;;5114363;28;20304;-73
2021/09/15 09:55:22;;;;;;;;;;;;;;;;;;5114245;28;19924;-73
2021/09/15 09:57:48;;;;;;;;;;;;;;;;;;5114436;28;19924;-73
2021/09/15 10:00:14;;;;;;;;;;;;;;;;;;5114729;28;19930;-72
2021/09/15 10:02:41;;;;;;;;;;;;;;;;;;5113686;28;20392;-71
2021/09/15 10:05:07;;;;;;;;;;;;;;;;;;5114050;28;19924;-72
2021/09/15 10:07:33;;;;;;;;;;;;;;;;;;5114185;28;19960;-71
2021/09/15 10:09:59;;;;;;;;;;;;;;;;;;5114168;28;19928;-71
2021/09/15 10:12:26;;;;;;;;;;;;;;;;;;5114109;28;19924;-71
2021/09/15 10:14:52;;;;;;;;;;;;;;;;;;5114373;28;20010;-71
2021/09/15 10:17:18;;;;;;;;;;;;;;;;;;5113599;28;20382;-71
2021/09/15 10:19:45;;;;;;;;;;;;;;;;;;5113916;28;19930;-71
2021/09/15 10:22:11;;;;;;;;;;;;;;;;;;5114207;28;19924;-71
2021/09/15 10:24:37;;;;;;;;;;;;;;;;;;5113799;28;20014;-71
2021/09/15 10:27:04;;;;;;;;;;;;;;;;;;5113707;28;19923;-72
2021/09/15 10:29:31;;;;;;;;;;;;;;;;;;5113483;28;19927;-71
2021/09/15 10:31:58;;;;;;;;;;;;;;;;;;5113769;28;20370;-71
2021/09/15 10:34:24;;;;;;;;;;;;;;;;;;5113371;28;19923;-71
2021/09/15 10:36:50;;;;;;;;;;;;;;;;;;5113868;28;19924;-71
2021/09/15 10:39:16;;;;;;;;;;;;;;;;;;5113282;28;20378;-71
2021/09/15 10:41:43;;;;;;;;;;;;;;;;;;5101279;28;19931;-74
2021/09/15 10:44:10;;;;;;;;;;;;;;;;;;5093198;28;19928;-73
2021/09/15 10:46:36;;;;;;;;;;;;;;;;;;5092832;28;19924;-73
2021/09/15 10:49:02;;;;;;;;;;;;;;;;;;5093339;28;19947;-73
2021/09/15 10:51:29;;;;;;;;;;;;;;;;;;5092824;28;19924;-73
2021/09/15 10:53:55;;;;;;;;;;;;;;;;;;5093031;28;19924;-73
2021/09/15 10:56:21;;;;;;;;;;;;;;;;;;5093082;28;19924;-73
2021/09/15 10:58:48;;;;;;;;;;;;;;;;;;5092953;28;20401;-73
2021/09/15 11:01:15;;;;;;;;;;;;;;;;;;5092556;28;19931;-73
2021/09/15 11:03:41;;;;;;;;;;;;;;;;;;5093195;28;19931;-73
2021/09/15 11:06:08;;;;;;;;;;;;;;;;;;5092819;28;19969;-73
2021/09/15 11:08:34;;;;;;;;;;;;;;;;;;5092774;28;19933;-73
2021/09/15 11:11:00;;;;;;;;;;;;;;;;;;5092663;28;19928;-73
2021/09/15 11:13:27;;;;;;;;;;;;;;;;;;5092826;28;19932;-73
2021/09/15 11:15:54;;;;;;;;;;;;;;;;;;5092712;28;19930;-73
2021/09/15 11:18:20;;;;;;;;;;;;;;;;;;5092423;28;20412;-73
2021/09/15 11:20:46;;;;;;;;;;;;;;;;;;5092502;28;19924;-73
2021/09/15 11:23:14;;;;;;;;;;;;;;;;;;5092502;28;19931;-73
2021/09/15 11:25:42;;;;;;;;;;;;;;;;;;5092469;28;20212;-73
2021/09/15 11:28:08;;;;;;;;;;;;;;;;;;5092513;28;20310;-73
2021/09/15 11:30:35;;;;;;;;;;;;;;;;;;5092199;28;19924;-73
2021/09/15 11:33:01;;;;;;;;;;;;;;;;;;5092742;28;19924;-73
2021/09/15 11:35:27;;;;;;;;;;;;;;;;;;5092321;28;19923;-73
2021/09/15 11:37:54;;;;;;;;;;;;;;;;;;5092670;28;19931;-73
2021/09/15 11:40:20;;;;;;;;;;;;;;;;;;5092873;28;20279;-74
2021/09/15 11:42:46;;;;;;;;;;;;;;;;;;5113386;28;19924;-73
2021/09/15 11:45:13;;;;;;;;;;;;;;;;;;5113569;28;19930;-73
2021/09/15 11:47:39;;;;;;;;;;;;;;;;;;5112659;28;20266;-73
2021/09/15 11:50:05;;;;;;;;;;;;;;;;;;5112548;28;19929;-73
2021/09/15 11:52:31;;;;;;;;;;;;;;;;;;5112760;28;19923;-73
2021/09/15 11:54:59;;;;;;;;;;;;;;;;;;5112634;28;19931;-73
2021/09/15 11:57:32;;;;;;;;;;;;;;;;;;5112682;28;20038;-73
2021/09/15 11:59:58;;;;;;;;;;;;;;;;;;5112928;28;19924;-73
2021/09/15 12:02:24;;;;;;;;;;;;;;;;;;5112538;28;20305;-73
2021/09/15 12:04:50;;;;;;;;;;;;;;;;;;5112499;28;19935;-73
2021/09/15 12:07:17;;;;;;;;;;;;;;;;;;5112890;28;20432;-73
2021/09/15 12:09:44;;;;;;;;;;;;;;;;;;5112224;28;20335;-73
2021/09/15 12:12:10;;;;;;;;;;;;;;;;;;5112353;28;19928;-73
2021/09/15 12:14:36;;;;;;;;;;;;;;;;;;5112340;28;19923;-74
2021/09/15 12:17:04;;;;;;;;;;;;;;;;;;5112444;28;19924;-73
2021/09/15 12:19:30;;;;;;;;;;;;;;;;;;5112089;28;20010;-73
2021/09/15 12:21:56;;;;;;;;;;;;;;;;;;5112501;28;19928;-73
2021/09/15 12:24:25;;;;;;;;;;;;;;;;;;5111949;28;19924;-73
2021/09/15 12:26:52;;;;;;;;;;;;;;;;;;5113343;28;19924;-73
2021/09/15 12:29:18;;;;;;;;;;;;;;;;;;5116022;28;19924;-73
2021/09/15 12:31:45;;;;;;;;;;;;;;;;;;5116285;28;19959;-73
2021/09/15 12:34:12;;;;;;;;;;;;;;;;;;5115877;28;19924;-73
2021/09/15 12:36:38;;;;;;;;;;;;;;;;;;5116261;28;19924;-73
2021/09/15 12:39:04;;;;;;;;;;;;;;;;;;5116073;28;19924;-71
2021/09/15 12:41:30;;;;;;;;;;;;;;;;;;5104845;28;19928;-71
2021/09/15 12:43:57;;;;;;;;;;;;;;;;;;5095683;28;19924;-71
2021/09/15 12:46:23;;;;;;;;;;;;;;;;;;5095489;28;19928;-71
2021/09/15 12:48:49;;;;;;;;;;;;;;;;;;5095411;28;19924;-73
2021/09/15 12:51:16;;;;;;;;;;;;;;;;;;5094851;28;19924;-73
2021/09/15 12:53:42;;;;;;;;;;;;;;;;;;5095588;28;19931;-73
2021/09/15 12:56:08;;;;;;;;;;;;;;;;;;5095538;28;20011;-73
2021/09/15 12:58:35;;;;;;;;;;;;;;;;;;5094934;28;20401;-72
2021/09/15 13:01:01;;;;;;;;;;;;;;;;;;5095193;28;20030;-73
2021/09/15 13:03:27;;;;;;;;;;;;;;;;;;5094845;28;19927;-73
2021/09/15 13:05:53;;;;;;;;;;;;;;;;;;5095364;28;19951;-73
2021/09/15 13:08:20;;;;;;;;;;;;;;;;;;5094695;28;19931;-73
2021/09/15 13:10:48;;;;;;;;;;;;;;;;;;5095074;28;20003;-73
2021/09/15 13:13:14;;;;;;;;;;;;;;;;;;5094643;28;20443;-73
2021/09/15 13:15:41;;;;;;;;;;;;;;;;;;5094900;28;19935;-73
2021/09/15 13:18:07;;;;;;;;;;;;;;;;;;5094987;28;20310;-73
2021/09/15 13:20:33;;;;;;;;;;;;;;;;;;5094168;28;19924;-73
2021/09/15 13:23:00;;;;;;;;;;;;;;;;;;5094670;28;19924;-73
2021/09/15 13:25:26;;;;;;;;;;;;;;;;;;5094495;28;20298;-73
2021/09/15 13:27:52;;;;;;;;;;;;;;;;;;5094662;28;19930;-73
2021/09/15 13:30:19;;;;;;;;;;;;;;;;;;5094891;28;19931;-72
2021/09/15 13:32:45;;;;;;;;;;;;;;;;;;5094968;28;19924;-72
2021/09/15 13:35:11;;;;;;;;;;;;;;;;;;5094554;28;20386;-72
2021/09/15 13:37:38;;;;;;;;;;;;;;;;;;5094843;28;19966;-72
2021/09/15 13:40:04;;;;;;;;;;;;;;;;;;5094917;28;20440;-72
2021/09/15 13:42:30;;;;;;;;;;;;;;;;;;5113080;28;19923;-72
2021/09/15 13:44:56;;;;;;;;;;;;;;;;;;5115389;28;19930;-72
2021/09/15 13:47:23;;;;;;;;;;;;;;;;;;5114473;28;19924;-72
2021/09/15 13:49:49;;;;;;;;;;;;;;;;;;5114420;28;19924;-72
2021/09/15 13:52:15;;;;;;;;;;;;;;;;;;5114542;28;19924;-72
2021/09/15 13:54:42;;;;;;;;;;;;;;;;;;5114803;28;19927;-73
2021/09/15 13:57:08;;;;;;;;;;;;;;;;;;5114768;28;19930;-72
2021/09/15 13:59:34;;;;;;;;;;;;;;;;;;5114099;28;20018;-72
2021/09/15 14:02:01;;;;;;;;;;;;;;;;;;5114729;28;19924;-72
2021/09/15 14:04:27;;;;;;;;;;;;;;;;;;5114370;28;20032;-73
2021/09/15 14:06:53;;;;;;;;;;;;;;;;;;5114515;28;19924;-72
2021/09/15 14:09:20;;;;;;;;;;;;;;;;;;5114221;28;19923;-72
2021/09/15 14:11:46;;;;;;;;;;;;;;;;;;5114464;28;19923;-72
2021/09/15 14:14:12;;;;;;;;;;;;;;;;;;5113895;28;20400;-72
2021/09/15 14:16:40;;;;;;;;;;;;;;;;;;5113955;28;19924;-72
2021/09/15 14:19:06;;;;;;;;;;;;;;;;;;5114331;28;20427;-72
2021/09/15 14:21:32;;;;;;;;;;;;;;;;;;5113611;28;19927;-73
2021/09/15 14:23:59;;;;;;;;;;;;;;;;;;5113821;28;19931;-72
2021/09/15 14:26:25;;;;;;;;;;;;;;;;;;5113668;28;20412;-72
2021/09/15 14:28:51;;;;;;;;;;;;;;;;;;5114152;28;19924;-73
2021/09/15 14:31:18;;;;;;;;;;;;;;;;;;5113598;28;20305;-72
2021/09/15 14:33:44;;;;;;;;;;;;;;;;;;5113673;28;19930;-72
2021/09/15 14:36:10;;;;;;;;;;;;;;;;;;5114216;28;19931;-73
2021/09/15 14:38:42;;;;;;;;;;;;;;;;;;5113376;28;19933;-73
2021/09/15 14:41:08;;;;;;;;;;;;;;;;;;5106206;28;19967;-72
2021/09/15 14:43:34;;;;;;;;;;;;;;;;;;5093284;28;19924;-72
2021/09/15 14:46:00;;;;;;;;;;;;;;;;;;5093290;28;20294;-73
2021/09/15 14:48:27;;;;;;;;;;;;;;;;;;5093054;28;19924;-72
2021/09/15 14:50:53;;;;;;;;;;;;;;;;;;5092674;28;19924;-72
2021/09/15 14:53:19;;;;;;;;;;;;;;;;;;5092784;28;20389;-72
2021/09/15 14:55:46;;;;;;;;;;;;;;;;;;5092919;28;19938;-73
2021/09/15 14:58:12;;;;;;;;;;;;;;;;;;5092922;28;19963;-72
2021/09/15 15:00:38;;;;;;;;;;;;;;;;;;5093400;28;19924;-72
2021/09/15 15:03:05;;;;;;;;;;;;;;;;;;5093194;28;19931;-72
2021/09/15 15:05:31;;;;;;;;;;;;;;;;;;5092498;28;20382;-72
2021/09/15 15:07:57;;;;;;;;;;;;;;;;;;5092662;28;19925;-72
2021/09/15 15:10:24;;;;;;;;;;;;;;;;;;5092732;28;19935;-72
2021/09/15 15:12:50;;;;;;;;;;;;;;;;;;5092960;28;19932;-72
2021/09/15 15:15:16;;;;;;;;;;;;;;;;;;5092767;28;19931;-71
2021/09/15 15:17:43;;;;;;;;;;;;;;;;;;5093186;28;19928;-71
2021/09/15 15:20:09;;;;;;;;;;;;;;;;;;5092473;28;20290;-71
2021/09/15 15:22:35;;;;;;;;;;;;;;;;;;5092290;28;19931;-72
2021/09/15 15:25:01;;;;;;;;;;;;;;;;;;5093152;28;19928;-71
2021/09/15 15:27:28;;;;;;;;;;;;;;;;;;5092324;28;19931;-71
2021/09/15 15:29:57;;;;;;;;;;;;;;;;;;5092976;28;19931;-71
2021/09/15 15:32:24;;;;;;;;;;;;;;;;;;5092324;28;20405;-71
2021/09/15 15:34:50;;;;;;;;;;;;;;;;;;5092821;28;19924;-72
2021/09/15 15:37:16;;;;;;;;;;;;;;;;;;5092547;28;20275;-72
2021/09/15 15:39:42;;;;;;;;;;;;;;;;;;5092493;28;19928;-72
2021/09/15 15:42:09;;;;;;;;;;;;;;;;;;5108664;28;19931;-72
2021/09/15 15:44:35;;;;;;;;;;;;;;;;;;5112386;28;19924;-72
2021/09/15 15:47:01;;;;;;;;;;;;;;;;;;5113251;28;19930;-72
2021/09/15 15:49:28;;;;;;;;;;;;;;;;;;5112846;28;19924;-71
2021/09/15 15:51:54;;;;;;;;;;;;;;;;;;5112632;28;20378;-72
2021/09/15 15:54:20;;;;;;;;;;;;;;;;;;5112726;28;20005;-72
2021/09/15 15:56:46;;;;;;;;;;;;;;;;;;5113179;28;19947;-72
2021/09/15 15:59:14;;;;;;;;;;;;;;;;;;5112395;28;19927;-72
2021/09/15 16:01:40;;;;;;;;;;;;;;;;;;5115530;28;20020;-72
2021/09/15 16:04:07;;;;;;;;;;;;;;;;;;5116823;28;19937;-71
2021/09/15 16:06:33;;;;;;;;;;;;;;;;;;5116701;28;19977;-73
2021/09/15 16:08:59;;;;;;;;;;;;;;;;;;5116483;28;20286;-71
2021/09/15 16:11:25;;;;;;;;;;;;;;;;;;5116283;28;19931;-71
2021/09/15 16:13:52;;;;;;;;;;;;;;;;;;5116945;28;19968;-71
2021/09/15 16:16:18;;;;;;;;;;;;;;;;;;5116084;28;20374;-70
2021/09/15 16:18:44;;;;;;;;;;;;;;;;;;5116569;28;19930;-71
2021/09/15 16:21:11;;;;;;;;;;;;;;;;;;5116436;28;20362;-72
2021/09/15 16:23:37;;;;;;;;;;;;;;;;;;5116026;28;19924;-74
2021/09/15 16:26:03;;;;;;;;;;;;;;;;;;5116560;28;19935;-73
2021/09/15 16:28:29;;;;;;;;;;;;;;;;;;5115955;28;19931;-75
2021/09/15 16:30:56;;;;;;;;;;;;;;;;;;5115975;28;19930;-69
2021/09/15 16:33:22;;;;;;;;;;;;;;;;;;5116185;28;19930;-71
2021/09/15 16:35:48;;;;;;;;;;;;;;;;;;5116004;28;19924;-69
2021/09/15 16:38:15;;;;;;;;;;;;;;;;;;5116075;28;19924;-69
2021/09/15 16:40:41;;;;;;;;;;;;;;;;;;5112206;28;20401;-69
2021/09/15 16:43:07;;;;;;;;;;;;;;;;;;5095489;28;19931;-69
2021/09/15 16:45:34;;;;;;;;;;;;;;;;;;5095546;28;19928;-71
2021/09/15 16:48:00;;;;;;;;;;;;;;;;;;5095171;28;19931;-70